Time;durP1;ratioP1;P1;durP2;ratioP2;P2;SDS_P1;SDS_P2;PMS_P1;PMS_P2;Temp;Humidity;BMP_temperature;BMP_pressure;BME280_temperature;BME280_humidity;BME280_pressure;Samples;Min_cycle;Max_cycle;Signal;HPM_P1;HPM_P2
2022/10/25 00:02:13;;;;;;;4.43;3.60;;;14.10;64.20;;;;;;20509;6846;279032;-85
2022/10/25 00:04:39;;;;;;;4.87;3.40;;;14.30;63.90;;;;;;20694;6850;118632;-87
2022/10/25 00:07:04;;;;;;;5.13;4.63;;;14.30;63.90;;;;;;20517;6850;298524;-85
2022/10/25 00:09:30;;;;;;;5.07;3.97;;;14.50;63.60;;;;;;20495;6848;278476;-85
2022/10/25 00:11:57;;;;;;;3.62;3.30;;;15.00;62.80;;;;;;20516;6848;308362;-86
2022/10/25 00:14:23;;;;;;;2.73;2.53;;;14.90;62.10;;;;;;20722;6848;119374;-85
2022/10/25 00:16:49;;;;;;;2.40;2.30;;;14.80;62.30;;;;;;20717;6848;116905;-85
2022/10/25 00:19:14;;;;;;;2.63;2.33;;;14.50;63.30;;;;;;20697;6846;122852;-85
2022/10/25 00:21:40;;;;;;;2.53;2.33;;;14.30;64.40;;;;;;20712;6847;118779;-88
2022/10/25 00:24:05;;;;;;;2.90;2.70;;;14.10;65.10;;;;;;20500;6847;337823;-86
2022/10/25 00:26:31;;;;;;;2.40;2.30;;;14.30;64.80;;;;;;20498;6847;282231;-86
2022/10/25 00:28:57;;;;;;;2.90;2.00;;;14.60;63.80;;;;;;20711;6847;117228;-86
2022/10/25 00:31:22;;;;;;;2.28;2.17;;;14.60;63.70;;;;;;20485;6848;338282;-86
2022/10/25 00:33:49;;;;;;;2.58;1.90;;;14.60;63.50;;;;;;20707;6848;118343;-86
2022/10/25 00:36:14;;;;;;;2.90;2.20;;;14.60;63.50;;;;;;20711;6848;118234;-86
2022/10/25 00:38:40;;;;;;;2.80;2.17;;;14.40;64.10;;;;;;20703;6848;117190;-85
2022/10/25 00:41:05;;;;;;;2.17;2.07;;;14.20;64.90;;;;;;20725;6848;119350;-85
2022/10/25 00:43:35;;;;;;;3.27;2.90;;;14.30;65.60;;;;;;20487;6848;307599;-85
2022/10/25 00:46:00;;;;;;;3.33;2.57;;;14.30;65.50;;;;;;20717;6848;118092;-85
2022/10/25 00:48:26;;;;;;;2.67;2.47;;;14.40;65.30;;;;;;20709;6848;117557;-85
2022/10/25 00:50:52;;;;;;;5.20;2.30;;;14.50;65.00;;;;;;20511;6848;277610;-85
2022/10/25 00:53:18;;;;;;;2.10;2.00;;;14.50;65.00;;;;;;20692;6848;118282;-86
2022/10/25 00:55:44;;;;;;;3.10;2.20;;;14.60;64.90;;;;;;20495;6848;278437;-88
2022/10/25 00:58:09;;;;;;;1.95;1.80;;;14.80;64.10;;;;;;20692;6848;117361;-85
2022/10/25 01:00:35;;;;;;;2.33;2.17;;;14.60;64.20;;;;;;20695;6848;117055;-85
2022/10/25 01:03:01;;;;;;;2.23;1.57;;;14.60;64.10;;;;;;20701;6848;117002;-86
2022/10/25 01:05:26;;;;;;;2.03;1.83;;;14.40;64.50;;;;;;20486;6848;277672;-86
2022/10/25 01:07:52;;;;;;;1.60;1.50;;;14.60;63.10;;;;;;20711;6848;119513;-89
2022/10/25 01:10:17;;;;;;;1.95;1.75;;;14.60;63.10;;;;;;20499;6848;307209;-86
2022/10/25 01:12:43;;;;;;;2.53;1.70;;;14.70;62.80;;;;;;20496;6848;312052;-87
2022/10/25 01:15:09;;;;;;;2.20;2.00;;;15.00;61.90;;;;;;20705;6848;117565;-86
2022/10/25 01:17:54;;;;;;;3.37;3.07;;;14.80;61.90;;;;;;20475;6848;308031;-87
2022/10/25 01:20:23;;;;;;;35.00;4.03;;;14.80;61.20;;;;;;20469;6848;305396;-87
2022/10/25 01:22:49;;;;;;;91.23;6.47;;;15.10;60.80;;;;;;20686;6848;121540;-86
2022/10/25 01:25:17;;;;;;;158.93;7.93;;;14.90;61.10;;;;;;20661;6848;118618;-88
2022/10/25 01:27:52;;;;;;;2.50;2.30;;;14.50;61.70;;;;;;20497;6848;336638;-87
2022/10/25 01:30:21;;;;;;;4.07;1.90;;;14.50;61.40;;;;;;20719;6846;117640;-85
2022/10/25 01:33:06;;;;;;;3.12;1.80;;;14.40;61.80;;;;;;20472;6847;286908;-87
2022/10/25 01:35:38;;;;;;;2.87;1.70;;;14.40;61.80;;;;;;20487;6847;425401;-86
2022/10/25 01:38:07;;;;;;;1.95;1.70;;;14.70;61.20;;;;;;20469;6847;317381;-88
2022/10/25 01:40:37;;;;;;;2.50;1.70;;;14.60;60.80;;;;;;20667;6847;118721;-89
2022/10/25 01:43:25;;;;;;;1.63;1.53;;;14.70;61.00;;;;;;20687;6848;117605;-88
2022/10/25 01:45:54;;;;;;;2.73;1.57;;;14.30;61.80;;;;;;20707;6848;118577;-89
2022/10/25 01:48:19;;;;;;;3.33;1.60;;;13.90;62.90;;;;;;20705;6848;117534;-90
2022/10/25 01:50:45;;;;;;;2.47;1.77;;;13.70;63.70;;;;;;20570;6848;118305;-87
2022/10/25 01:53:11;;;;;;;4.32;2.30;;;13.60;64.30;;;;;;20501;6848;336902;-85
2022/10/25 01:55:36;;;;;;;2.83;2.13;;;13.70;63.00;;;;;;20696;6848;118907;-89
2022/10/25 01:58:21;;;;;;;7.17;2.90;;;13.70;63.10;;;;;;20297;6848;337024;-88
2022/10/25 02:01:17;;;;;;;24.98;3.22;;;13.80;62.30;;;;;;20470;6848;337140;-86
2022/10/25 02:03:49;;;;;;;183.95;7.15;;;14.10;61.80;;;;;;19432;7206;351785;-86
2022/10/25 02:06:21;;;;;;;44.03;3.83;;;14.30;59.80;;;;;;20311;6848;117587;-86
2022/10/25 02:08:47;;;;;;;2.97;2.40;;;14.10;60.20;;;;;;20694;6848;117629;-87
2022/10/25 02:11:22;;;;;;;9.63;2.70;;;13.70;61.30;;;;;;20720;6848;117054;-86
2022/10/25 02:13:58;;;;;;;3.70;2.30;;;13.40;62.30;;;;;;20734;6848;117338;-86
2022/10/25 02:16:24;;;;;;;4.13;2.70;;;13.10;63.20;;;;;;20218;6848;307528;-89
2022/10/25 02:18:49;;;;;;;3.77;2.30;;;13.30;63.00;;;;;;20704;6848;118912;-87
2022/10/25 02:21:15;;;;;;;2.30;2.20;;;13.50;63.00;;;;;;20468;6848;282385;-88
2022/10/25 02:23:41;;;;;;;2.20;2.00;;;13.80;62.70;;;;;;20490;6848;339369;-87
2022/10/25 02:26:07;;;;;;;2.33;1.53;;;13.80;62.60;;;;;;20698;6848;117376;-86
2022/10/25 02:28:33;;;;;;;3.50;1.90;;;13.50;64.20;;;;;;20702;6848;117208;-88
2022/10/25 02:30:59;;;;;;;2.23;2.03;;;13.50;63.50;;;;;;20476;6848;312125;-86
2022/10/25 02:33:24;;;;;;;2.87;1.90;;;13.70;63.20;;;;;;20472;6848;307106;-86
2022/10/25 02:36:14;;;;;;;1.80;1.70;;;14.00;62.40;;;;;;20691;6848;121474;-88
2022/10/25 02:38:39;;;;;;;1.90;1.80;;;13.90;62.20;;;;;;20506;6848;310454;-88
2022/10/25 02:41:05;;;;;;;2.10;1.90;;;14.00;61.50;;;;;;20711;6848;117053;-86
2022/10/25 02:43:30;;;;;;;2.53;2.33;;;13.90;61.70;;;;;;20479;6846;308042;-88
2022/10/25 02:45:56;;;;;;;14.60;3.60;;;14.00;61.00;;;;;;20493;6847;282072;-87
2022/10/25 02:48:21;;;;;;;100.17;6.13;;;14.20;60.40;;;;;;20494;6847;307944;-86
2022/10/25 02:50:48;;;;;;;74.47;5.10;;;14.60;58.80;;;;;;20501;6847;278508;-86
2022/10/25 02:53:14;;;;;;;181.63;6.77;;;14.70;57.90;;;;;;20493;6848;307665;-86
2022/10/25 02:55:40;;;;;;;105.23;5.47;;;14.70;56.80;;;;;;20304;6862;282197;-88
2022/10/25 02:58:07;;;;;;;27.17;3.30;;;14.70;56.80;;;;;;20498;6848;307273;-86
2022/10/25 03:00:33;;;;;;;2.60;2.40;;;14.70;56.50;;;;;;20458;6864;308775;-86
2022/10/25 03:02:59;;;;;;;2.40;2.30;;;14.60;56.30;;;;;;20697;6854;117246;-89
2022/10/25 03:05:25;;;;;;;2.73;2.53;;;14.40;57.20;;;;;;20658;6849;117780;-86
2022/10/25 03:07:50;;;;;;;2.93;2.73;;;13.90;58.30;;;;;;20496;6849;307147;-87
2022/10/25 03:10:16;;;;;;;8.83;3.43;;;13.90;58.00;;;;;;20466;6849;311695;-87
2022/10/25 03:12:42;;;;;;;22.33;3.53;;;13.90;58.70;;;;;;20663;6861;117795;-88
2022/10/25 03:15:08;;;;;;;76.03;4.30;;;13.90;58.70;;;;;;20702;6849;117307;-86
2022/10/25 03:17:36;;;;;;;105.37;4.70;;;13.30;60.60;;;;;;20771;6849;148662;-88
2022/10/25 03:20:01;;;;;;;98.93;4.17;;;13.20;60.30;;;;;;20790;6834;118019;-85
2022/10/25 03:22:27;;;;;;;42.50;3.73;;;13.00;61.00;;;;;;20749;6834;120828;-86
2022/10/25 03:24:52;;;;;;;94.27;15.47;;;12.90;61.70;;;;;;20376;6834;118328;-86
2022/10/25 03:27:18;;;;;;;73.32;15.10;;;12.80;62.30;;;;;;20488;6834;278651;-85
2022/10/25 03:29:44;;;;;;;58.72;6.07;;;13.00;61.80;;;;;;20517;6834;309826;-86
2022/10/25 03:32:09;;;;;;;52.13;4.10;;;13.40;60.90;;;;;;20742;6834;119168;-86
2022/10/25 03:34:36;;;;;;;34.40;3.67;;;13.30;60.70;;;;;;20543;6834;306915;-86
2022/10/25 03:37:03;;;;;;;93.70;4.57;;;13.40;60.70;;;;;;20546;6834;279155;-86
2022/10/25 03:39:28;;;;;;;29.33;3.53;;;13.70;59.60;;;;;;20508;6834;308076;-87
2022/10/25 03:41:54;;;;;;;9.23;3.08;;;13.90;58.60;;;;;;20530;6834;312862;-86
2022/10/25 03:44:20;;;;;;;8.27;3.23;;;14.00;58.00;;;;;;20543;6834;335877;-88
2022/10/25 03:47:05;;;;;;;14.67;3.50;;;14.10;57.30;;;;;;20649;6834;277037;-86
2022/10/25 03:49:41;;;;;;;6.60;2.80;;;14.20;56.70;;;;;;20927;6726;119769;-87
2022/10/25 03:52:16;;;;;;;3.00;2.80;;;13.80;57.60;;;;;;20732;6724;304969;-87
2022/10/25 03:54:52;;;;;;;2.97;2.27;;;13.80;58.70;;;;;;20856;6736;116908;-87
2022/10/25 03:57:27;;;;;;;4.50;2.40;;;13.60;59.30;;;;;;20679;6811;149306;-87
2022/10/25 04:00:03;;;;;;;2.50;1.93;;;13.20;60.20;;;;;;20962;6705;118039;-87
2022/10/25 04:02:39;;;;;;;3.33;2.80;;;13.00;61.30;;;;;;20712;6735;276051;-87
2022/10/25 04:05:15;;;;;;;2.77;2.67;;;13.50;60.70;;;;;;20617;6745;306963;-87
2022/10/25 04:07:56;;;;;;;3.07;2.80;;;13.50;60.70;;;;;;20553;6716;330280;-87
2022/10/25 04:10:26;;;;;;;3.00;2.80;;;13.80;59.80;;;;;;20733;6713;305429;-87
2022/10/25 04:13:02;;;;;;;4.80;2.70;;;14.00;59.10;;;;;;20922;6713;117780;-87
2022/10/25 04:15:37;;;;;;;2.60;2.40;;;13.70;59.40;;;;;;20900;6777;116835;-87
2022/10/25 04:18:14;;;;;;;2.95;2.75;;;13.40;60.00;;;;;;20764;6757;318557;-87
2022/10/25 04:20:49;;;;;;;2.80;2.60;;;13.40;60.00;;;;;;21004;6698;116901;-86
2022/10/25 04:23:25;;;;;;;2.10;2.00;;;13.30;60.30;;;;;;20899;6713;118916;-86
2022/10/25 04:26:00;;;;;;;3.10;2.90;;;13.00;61.00;;;;;;20680;6732;311449;-87
2022/10/25 04:28:36;;;;;;;3.00;2.50;;;13.20;60.80;;;;;;20700;6720;305958;-82
2022/10/25 04:31:12;;;;;;;2.47;2.27;;;13.50;60.10;;;;;;20983;6712;116819;-83
2022/10/25 04:33:50;;;;;;;2.97;2.00;;;13.30;60.20;;;;;;20930;6729;118123;-81
2022/10/25 04:36:26;;;;;;;3.20;2.20;;;13.00;61.00;;;;;;20922;6713;116452;-83
2022/10/25 04:39:01;;;;;;;2.33;2.20;;;12.80;61.80;;;;;;20962;6721;117740;-82
2022/10/25 04:41:38;;;;;;;2.50;2.40;;;12.60;62.50;;;;;;20697;6722;309514;-81
2022/10/25 04:44:14;;;;;;;2.27;2.07;;;12.80;62.00;;;;;;20964;6707;117381;-83
2022/10/25 04:46:50;;;;;;;4.00;2.20;;;12.80;61.70;;;;;;20884;6707;116841;-83
2022/10/25 04:49:25;;;;;;;5.97;2.30;;;12.70;62.10;;;;;;20989;6707;118020;-82
2022/10/25 04:52:01;;;;;;;3.10;2.65;;;12.40;62.60;;;;;;20759;6717;336181;-82
2022/10/25 04:54:36;;;;;;;3.12;2.62;;;12.70;60.80;;;;;;20722;6712;307142;-83
2022/10/25 04:57:12;;;;;;;2.13;1.97;;;12.90;59.40;;;;;;20797;6733;116235;-83
2022/10/25 04:59:51;;;;;;;2.13;2.03;;;12.90;59.40;;;;;;20961;6721;117133;-87
2022/10/25 05:02:27;;;;;;;1.90;1.80;;;12.40;61.00;;;;;;21006;6708;117232;-85
2022/10/25 05:05:03;;;;;;;2.40;2.30;;;12.40;61.00;;;;;;20802;6707;334192;-84
2022/10/25 05:07:39;;;;;;;2.90;2.00;;;12.60;60.50;;;;;;20841;6710;116218;-83
2022/10/25 05:10:15;;;;;;;3.47;3.27;;;12.60;60.20;;;;;;20805;6706;308595;-83
2022/10/25 05:13:00;;;;;;;3.73;3.40;;;12.80;59.50;;;;;;20949;6722;117162;-84
2022/10/25 05:15:26;;;;;;;6.40;5.90;;;12.70;59.70;;;;;;20974;6709;117025;-88
2022/10/25 05:18:01;;;;;;;3.77;3.57;;;12.50;60.40;;;;;;20755;6722;117047;-88
2022/10/25 05:20:38;;;;;;;3.30;3.10;;;12.10;61.70;;;;;;21003;6692;117020;-87
2022/10/25 05:23:13;;;;;;;5.65;3.30;;;12.00;61.60;;;;;;20751;6760;305154;-87
2022/10/25 05:25:50;;;;;;;4.67;2.60;;;12.40;61.10;;;;;;20875;6741;117109;-89
2022/10/25 05:28:26;;;;;;;7.87;2.27;;;12.40;61.20;;;;;;21015;6722;116612;-89
2022/10/25 05:31:02;;;;;;;3.30;3.00;;;12.20;61.70;;;;;;20964;6724;118016;-87
2022/10/25 05:33:37;;;;;;;4.95;2.80;;;12.10;62.40;;;;;;20690;6722;306001;-88
2022/10/25 05:36:13;;;;;;;3.13;2.83;;;12.30;62.10;;;;;;20565;6751;299320;-87
2022/10/25 05:38:48;;;;;;;2.83;2.40;;;12.80;60.90;;;;;;20898;6736;116701;-90
2022/10/25 05:41:24;;;;;;;2.87;2.53;;;12.70;60.80;;;;;;20887;6736;122698;-87
2022/10/25 05:44:00;;;;;;;2.20;1.90;;;12.50;61.30;;;;;;20895;6740;117818;-87
2022/10/25 05:46:35;;;;;;;2.60;2.50;;;12.20;62.00;;;;;;20939;6692;117668;-87
2022/10/25 05:49:11;;;;;;;4.57;2.37;;;12.10;62.70;;;;;;21058;6692;117780;-89
2022/10/25 05:51:46;;;;;;;2.43;2.23;;;11.90;63.20;;;;;;21057;6692;117368;-87
2022/10/25 05:54:23;;;;;;;2.72;2.53;;;11.80;63.70;;;;;;20829;6692;303668;-88
2022/10/25 05:56:57;;;;;;;2.37;2.20;;;12.10;63.40;;;;;;20933;6692;117795;-87
2022/10/25 05:59:34;;;;;;;3.03;2.30;;;12.10;63.80;;;;;;20913;6725;121071;-87
2022/10/25 06:02:11;;;;;;;2.47;2.37;;;12.10;63.40;;;;;;20697;6781;305453;-89
2022/10/25 06:04:48;;;;;;;2.85;2.60;;;12.40;62.70;;;;;;20726;6725;276194;-88
2022/10/25 06:07:23;;;;;;;3.07;2.87;;;12.80;61.90;;;;;;20789;6725;119074;-87
2022/10/25 06:09:59;;;;;;;2.80;2.70;;;12.80;61.90;;;;;;20882;6744;117184;-86
2022/10/25 06:12:34;;;;;;;3.00;2.70;;;12.50;62.50;;;;;;20582;6758;336188;-87
2022/10/25 06:15:10;;;;;;;2.70;2.50;;;12.70;63.00;;;;;;20863;6758;117956;-88
2022/10/25 06:17:45;;;;;;;2.70;2.50;;;12.70;62.30;;;;;;20598;6768;121358;-87
2022/10/25 06:20:22;;;;;;;3.10;2.50;;;12.40;63.80;;;;;;20871;6754;117040;-87
2022/10/25 06:23:03;;;;;;;2.87;2.67;;;12.40;63.80;;;;;;20855;6754;117326;-87
2022/10/25 06:25:33;;;;;;;2.70;2.50;;;12.30;64.30;;;;;;20856;6737;118867;-87
2022/10/25 06:28:09;;;;;;;3.10;2.80;;;12.30;64.80;;;;;;20519;6805;278004;-87
2022/10/25 06:30:44;;;;;;;4.17;2.70;;;12.60;64.10;;;;;;20871;6742;118235;-86
2022/10/25 06:33:21;;;;;;;2.90;2.70;;;13.10;62.60;;;;;;20624;6754;294947;-86
2022/10/25 06:35:56;;;;;;;3.60;3.30;;;13.10;62.60;;;;;;20659;6737;311667;-86
2022/10/25 06:38:33;;;;;;;2.60;2.40;;;13.60;61.40;;;;;;20899;6737;117266;-86
2022/10/25 06:41:08;;;;;;;3.23;2.60;;;13.60;61.40;;;;;;20906;6727;116690;-86
2022/10/25 06:43:44;;;;;;;4.32;2.65;;;13.50;62.30;;;;;;20701;6727;306251;-86
2022/10/25 06:46:20;;;;;;;2.90;2.70;;;14.20;60.90;;;;;;20683;6718;308437;-85
2022/10/25 06:49:05;;;;;;;2.63;2.37;;;14.10;60.20;;;;;;20986;6709;122523;-85
2022/10/25 06:51:32;;;;;;;2.73;2.53;;;14.20;60.50;;;;;;20969;6709;117247;-86
2022/10/25 06:54:08;;;;;;;2.78;2.25;;;14.30;60.70;;;;;;20768;6709;336116;-89
2022/10/25 06:56:44;;;;;;;2.80;2.30;;;14.30;60.50;;;;;;20652;6709;280977;-88
2022/10/25 06:59:21;;;;;;;2.90;2.30;;;14.70;59.30;;;;;;20945;6724;121939;-87
2022/10/25 07:01:56;;;;;;;2.50;2.30;;;14.70;59.60;;;;;;20784;6699;305073;-88
2022/10/25 07:04:32;;;;;;;2.10;1.97;;;14.90;58.80;;;;;;20756;6777;117764;-89
2022/10/25 07:07:16;;;;;;;3.20;2.15;;;14.90;59.30;;;;;;20539;6750;310028;-87
2022/10/25 07:09:43;;;;;;;3.17;2.43;;;15.00;58.90;;;;;;20664;6745;294811;-88
2022/10/25 07:12:18;;;;;;;2.37;2.20;;;15.40;58.70;;;;;;20876;6736;116793;-89
2022/10/25 07:14:55;;;;;;;2.50;2.37;;;15.20;60.50;;;;;;20961;6721;117892;-90
2022/10/25 07:17:30;;;;;;;2.13;2.03;;;15.20;60.00;;;;;;20783;6771;117595;-86
2022/10/25 07:20:07;;;;;;;2.70;1.90;;;15.00;61.30;;;;;;20938;6728;117800;-89
2022/10/25 07:22:49;;;;;;;4.70;2.40;;;14.90;61.20;;;;;;20650;6727;278427;-87
2022/10/25 07:25:34;;;;;;;2.65;2.37;;;15.30;60.00;;;;;;20742;6718;335337;-88
2022/10/25 07:28:04;;;;;;;2.47;2.27;;;15.70;58.30;;;;;;20803;6722;117168;-89
2022/10/25 07:30:47;;;;;;;;;;;;;;;;;;;;;
2022/10/25 07:33:25;;;;;;;2.15;1.90;;;15.70;59.40;;;;;;20591;6729;305619;-87
2022/10/25 07:38:37;;;;;;;3.03;2.00;;;16.00;58.70;;;;;;20572;6724;307541;-86
2022/10/25 07:41:01;;;;;;;2.20;1.90;;;16.30;57.90;;;;;;20686;6735;276696;-88
2022/10/25 07:43:36;;;;;;;2.62;1.83;;;16.70;57.30;;;;;;20670;6728;296201;-92
2022/10/25 07:46:12;;;;;;;1.83;1.73;;;17.00;56.80;;;;;;20829;6747;116206;-87
2022/10/25 07:48:47;;;;;;;1.60;1.50;;;16.90;57.20;;;;;;20938;6727;115964;-87
2022/10/25 07:51:23;;;;;;;2.20;2.00;;;16.70;58.00;;;;;;20910;6721;126570;-89
2022/10/25 07:53:59;;;;;;;2.50;2.30;;;16.50;58.80;;;;;;20791;6721;277022;-92
2022/10/25 07:56:34;;;;;;;2.90;2.20;;;16.70;57.80;;;;;;20875;6721;118629;-87
2022/10/25 07:59:10;;;;;;;3.17;1.73;;;16.80;58.30;;;;;;20956;6721;116844;-91
2022/10/25 08:01:45;;;;;;;3.95;1.90;;;16.80;59.00;;;;;;20711;6721;303662;-88
2022/10/25 08:04:21;;;;;;;1.90;1.80;;;17.00;58.30;;;;;;20945;6721;116895;-86
2022/10/25 08:07:00;;;;;;;1.90;1.80;;;17.20;58.60;;;;;;20828;6721;116901;-92
2022/10/25 08:09:36;;;;;;;2.97;2.10;;;17.10;59.10;;;;;;20711;6739;275742;-91
2022/10/25 08:12:14;;;;;;;4.40;1.87;;;17.40;57.60;;;;;;20687;6729;310731;-89
2022/10/25 08:14:48;;;;;;;3.23;2.10;;;18.30;55.90;;;;;;20672;6743;306041;-87
2022/10/25 08:17:23;;;;;;;1.80;1.70;;;18.30;55.90;;;;;;20711;6744;117455;-88
2022/10/25 08:20:02;;;;;;;4.63;2.00;;;18.40;56.50;;;;;;20878;6742;117135;-86
2022/10/25 08:22:38;;;;;;;2.57;2.00;;;18.20;57.10;;;;;;20603;6760;315203;-86
2022/10/25 08:25:13;;;;;;;2.17;1.73;;;18.40;55.30;;;;;;20678;6743;305521;-87
2022/10/25 08:27:49;;;;;;;2.30;1.93;;;18.60;54.10;;;;;;20676;6754;118115;-89
2022/10/25 08:30:41;;;;;;;;;;;;;;;;;;;;;
2022/10/25 08:33:05;;;;;;;2.20;1.90;;;18.30;55.60;;;;;;20592;6804;306158;-86
2022/10/25 08:35:40;;;;;;;3.30;1.90;;;18.40;55.20;;;;;;20803;6755;121446;-88
2022/10/25 08:38:16;;;;;;;2.97;1.87;;;18.40;55.80;;;;;;20859;6755;118176;-86
2022/10/25 08:40:54;;;;;;;3.93;1.70;;;18.10;56.70;;;;;;20840;6753;116745;-86
2022/10/25 08:43:53;;;;;;;2.67;1.83;;;18.10;57.00;;;;;;20648;6740;306384;-86
2022/10/25 08:46:32;;;;;;;4.50;2.27;;;18.40;55.00;;;;;;20556;6754;279073;-86
2022/10/25 08:49:22;;;;;;;2.45;1.87;;;19.10;53.30;;;;;;20659;6741;331406;-86
2022/10/25 08:51:57;;;;;;;2.97;1.77;;;19.10;53.30;;;;;;20833;6750;117244;-86
2022/10/25 08:54:35;;;;;;;2.73;1.70;;;19.10;54.40;;;;;;20803;6756;117057;-86
2022/10/25 08:57:30;;;;;;;3.03;1.83;;;18.90;55.00;;;;;;20730;6757;119249;-86
2022/10/25 08:59:56;;;;;;;2.12;1.90;;;18.70;55.50;;;;;;20642;6749;322475;-86
2022/10/25 09:02:42;;;;;;;2.77;1.83;;;18.90;54.50;;;;;;20610;6764;280793;-86
2022/10/25 09:05:37;;;;;;;3.40;1.93;;;19.30;53.90;;;;;;20551;6764;281154;-86
2022/10/25 09:08:28;;;;;;;3.27;2.10;;;19.60;53.60;;;;;;20568;6772;324707;-86
2022/10/25 09:11:37;;;;;;;4.45;2.00;;;19.80;52.40;;;;;;20635;6753;313162;-86
2022/10/25 09:14:12;;;;;;;2.70;1.97;;;20.00;53.30;;;;;;20905;6739;117219;-86
2022/10/25 09:16:55;;;;;;;2.50;1.90;;;19.80;53.90;;;;;;20753;6754;117125;-86
2022/10/25 09:19:30;;;;;;;3.67;1.60;;;19.60;54.90;;;;;;20572;6754;278059;-86
2022/10/25 09:22:19;;;;;;;1.83;1.50;;;19.70;54.50;;;;;;20840;6754;117083;-86
2022/10/25 09:25:07;;;;;;;2.27;1.70;;;19.70;54.90;;;;;;20143;6814;306876;-86
2022/10/25 09:27:45;;;;;;;1.50;1.30;;;19.90;53.10;;;;;;20558;6817;117555;-86
2022/10/25 09:30:20;;;;;;;3.43;1.40;;;19.90;53.80;;;;;;20684;6735;276172;-86
2022/10/25 09:33:00;;;;;;;1.67;1.53;;;20.10;53.90;;;;;;20899;6735;116054;-86
2022/10/25 09:35:44;;;;;;;1.97;1.20;;;20.10;54.30;;;;;;20813;6754;118756;-86
2022/10/25 09:38:26;;;;;;;1.70;1.53;;;20.00;54.50;;;;;;20900;6735;117397;-87
2022/10/25 09:41:04;;;;;;;4.00;1.60;;;19.80;54.70;;;;;;20691;6735;278392;-87
2022/10/25 09:43:53;;;;;;;3.07;1.13;;;20.00;54.60;;;;;;20838;6749;118752;-87
2022/10/25 09:46:39;;;;;;;3.45;1.58;;;20.00;54.70;;;;;;20593;6733;337125;-87
2022/10/25 09:49:41;;;;;;;2.70;1.40;;;20.20;53.90;;;;;;20885;6752;118848;-87
2022/10/25 09:52:45;;;;;;;2.85;1.50;;;20.30;54.30;;;;;;20439;6785;333870;-88
2022/10/25 09:55:28;;;;;;;2.90;1.40;;;20.40;52.40;;;;;;20825;6756;121688;-88
2022/10/25 09:58:04;;;;;;;3.90;1.62;;;20.40;51.40;;;;;;20603;6749;334660;-88
2022/10/25 10:00:49;;;;;;;1.97;1.47;;;20.40;51.40;;;;;;20873;6751;117472;-88
2022/10/25 10:03:18;;;;;;;3.40;1.47;;;20.40;52.30;;;;;;20924;6722;117292;-88
2022/10/25 10:05:51;;;;;;;3.50;1.60;;;20.20;53.10;;;;;;20713;6720;305175;-88
2022/10/25 10:08:27;;;;;;;4.40;1.77;;;20.30;52.70;;;;;;20993;6707;117241;-88
2022/10/25 10:11:05;;;;;;;2.97;1.50;;;20.40;53.50;;;;;;20913;6751;117247;-88
2022/10/25 10:13:40;;;;;;;2.23;1.60;;;20.10;54.40;;;;;;20855;6719;118565;-88
2022/10/25 10:16:25;;;;;;;4.20;1.63;;;20.10;54.40;;;;;;20644;6734;308286;-87
2022/10/25 10:21:54;;;;;;;1.93;1.20;;;20.30;53.00;;;;;;20876;6532;66937;-93
2022/10/25 10:24:29;;;;;;;5.23;1.57;;;20.20;53.70;;;;;;20670;6822;277467;-95
2022/10/25 10:27:05;;;;;;;3.73;1.53;;;20.50;52.60;;;;;;20856;6831;121383;-96
2022/10/25 10:29:31;;;;;;;2.97;1.70;;;20.50;52.90;;;;;;20872;6815;119953;-94
2022/10/25 10:31:59;;;;;;;3.80;1.50;;;20.40;53.10;;;;;;20522;6866;338494;-95
2022/10/25 10:34:41;;;;;;;3.17;1.77;;;20.60;53.00;;;;;;20706;6865;119840;-96
2022/10/25 10:37:16;;;;;;;3.70;1.30;;;20.60;53.60;;;;;;20713;6865;117773;-95
2022/10/25 10:40:02;;;;;;;2.43;1.03;;;20.50;53.90;;;;;;20723;6865;119874;-96
2022/10/25 10:42:35;;;;;;;2.87;1.60;;;20.40;54.10;;;;;;20693;6865;121614;-96
2022/10/25 10:45:06;;;;;;;3.03;1.40;;;20.40;54.50;;;;;;20763;6865;119488;-96
2022/10/25 10:47:39;;;;;;;2.00;1.10;;;20.30;54.40;;;;;;20748;6865;118759;-96
2022/10/25 10:50:22;;;;;;;3.70;1.60;;;20.30;54.70;;;;;;20521;6865;279737;-95
2022/10/25 10:53:00;;;;;;;2.90;1.60;;;20.50;51.90;;;;;;20731;6865;119736;-96
2022/10/25 10:55:29;;;;;;;2.03;1.40;;;20.70;52.80;;;;;;20507;6865;307374;-96
2022/10/25 10:57:54;;;;;;;3.33;1.33;;;20.90;52.00;;;;;;20679;6876;122240;-95
2022/10/25 11:00:20;;;;;;;1.73;1.23;;;21.10;52.70;;;;;;20726;6861;116610;-96
2022/10/25 11:02:46;;;;;;;2.57;1.63;;;21.00;53.10;;;;;;20563;6861;308896;-96
2022/10/25 11:05:28;;;;;;;2.43;1.30;;;21.20;51.00;;;;;;20772;6861;116564;-96
2022/10/25 11:08:06;;;;;;;1.63;1.27;;;21.20;51.60;;;;;;20691;6861;121286;-96
2022/10/25 11:10:32;;;;;;;3.70;1.47;;;21.10;52.40;;;;;;20744;6861;118432;-96
2022/10/25 11:13:17;;;;;;;3.53;1.58;;;21.00;52.80;;;;;;20542;6861;339253;-96
2022/10/25 11:16:07;;;;;;;1.50;1.40;;;21.10;51.60;;;;;;20761;6861;117544;-96
2022/10/25 11:19:15;;;;;;;2.87;1.55;;;21.20;52.50;;;;;;20568;6861;308753;-96
2022/10/25 11:21:47;;;;;;;3.30;1.80;;;21.40;50.40;;;;;;20693;6861;120379;-96
2022/10/25 11:24:35;;;;;;;3.58;1.67;;;21.40;51.30;;;;;;20556;6861;330033;-96
2022/10/25 11:27:31;;;;;;;3.37;1.50;;;21.60;49.70;;;;;;20707;6861;117826;-95
2022/10/25 11:30:20;;;;;;;3.43;1.50;;;21.60;50.80;;;;;;20739;6861;121534;-96
2022/10/25 11:33:05;;;;;;;1.30;1.20;;;21.40;51.50;;;;;;20039;6861;119730;-96
2022/10/25 11:35:44;;;;;;;3.97;1.50;;;21.30;51.90;;;;;;20731;6861;117656;-96
2022/10/25 11:38:09;;;;;;;1.80;1.33;;;21.10;52.00;;;;;;20743;6861;116886;-96
2022/10/25 11:40:37;;;;;;;2.90;1.33;;;21.00;52.10;;;;;;20540;6861;338777;-96
2022/10/25 11:43:32;;;;;;;;;;;;;;;;;;;;;
2022/10/25 11:45:49;;;;;;;2.78;1.48;;;21.60;48.30;;;;;;20498;6861;303475;-96
2022/10/25 11:48:31;;;;;;;2.10;1.30;;;21.90;48.60;;;;;;20754;6861;67202;-96
2022/10/25 11:51:13;;;;;;;1.53;1.10;;;21.90;49.30;;;;;;20323;6735;117023;-85
2022/10/25 11:54:09;;;;;;;4.30;1.70;;;21.70;50.30;;;;;;20521;6750;328686;-85
2022/10/25 11:57:18;;;;;;;1.90;1.40;;;22.10;47.30;;;;;;20373;6791;280770;-86
2022/10/25 12:00:03;;;;;;;4.87;1.60;;;22.10;47.40;;;;;;20504;6789;300626;-88
2022/10/25 12:03:09;;;;;;;2.17;1.23;;;22.40;47.80;;;;;;20462;6816;280920;-85
2022/10/25 12:05:52;;;;;;;1.83;1.00;;;22.50;47.30;;;;;;20677;6795;117928;-86
2022/10/25 12:08:45;;;;;;;3.33;1.40;;;22.30;48.60;;;;;;20423;6858;309030;-86
2022/10/25 12:11:20;;;;;;;1.97;1.37;;;22.30;47.60;;;;;;20687;6811;117976;-87
2022/10/25 12:14:00;;;;;;;1.80;1.07;;;22.10;45.60;;;;;;20440;6782;278967;-85
2022/10/25 12:16:36;;;;;;;4.93;1.53;;;22.10;47.80;;;;;;20370;6805;117844;-85
2022/10/25 12:19:24;;;;;;;1.80;1.40;;;22.10;47.80;;;;;;20495;6796;310194;-85
2022/10/25 12:22:00;;;;;;;2.73;1.20;;;22.20;46.70;;;;;;20489;6783;117541;-85
2022/10/25 12:24:36;;;;;;;2.60;1.20;;;22.20;45.30;;;;;;20491;6808;305900;-85
2022/10/25 12:27:12;;;;;;;1.20;0.87;;;22.20;45.30;;;;;;20453;6797;67773;-85
2022/10/25 12:29:47;;;;;;;2.50;0.97;;;22.20;46.30;;;;;;20304;6781;308213;-85
2022/10/25 12:32:26;;;;;;;2.08;1.00;;;22.20;45.10;;;;;;20405;6781;329742;-84
2022/10/25 12:35:02;;;;;;;1.10;1.00;;;22.40;44.50;;;;;;20691;6776;122745;-84
2022/10/25 12:37:44;;;;;;;2.07;0.70;;;22.40;44.00;;;;;;20346;6788;305887;-85
2022/10/25 12:40:20;;;;;;;1.10;0.70;;;22.40;44.00;;;;;;20693;6774;117582;-84
2022/10/25 12:43:35;;;;;;;2.73;0.70;;;22.30;45.40;;;;;;20662;6810;117608;-85
2022/10/25 12:46:20;;;;;;;2.17;0.70;;;22.10;46.20;;;;;;20604;6792;117616;-86
2022/10/25 12:49:17;;;;;;;1.20;0.80;;;21.80;46.90;;;;;;20701;6806;117677;-86
2022/10/25 12:52:09;;;;;;;1.93;1.00;;;21.60;47.30;;;;;;20716;6792;119774;-86
2022/10/25 12:54:51;;;;;;;1.53;0.80;;;21.50;47.80;;;;;;20669;6794;117569;-86
2022/10/25 12:57:48;;;;;;;1.95;0.80;;;21.40;48.10;;;;;;20279;6790;340043;-86
2022/10/25 13:00:23;;;;;;;1.53;0.70;;;21.60;44.40;;;;;;20608;6816;118641;-86
2022/10/25 13:03:15;;;;;;;1.40;0.80;;;21.70;46.10;;;;;;20436;6799;281880;-86
2022/10/25 13:06:11;;;;;;;1.10;0.80;;;21.90;44.00;;;;;;20326;6797;278616;-86
2022/10/25 13:08:47;;;;;;;1.40;1.00;;;22.20;44.10;;;;;;20058;6841;307640;-86
2022/10/25 13:11:22;;;;;;;2.43;1.40;;;22.50;43.00;;;;;;20521;6766;288444;-86
2022/10/25 13:14:10;;;;;;;;;;;;;;;;;;;;;
2022/10/25 13:16:36;;;;;;;1.02;0.70;;;22.80;41.30;;;;;;20395;6766;282961;-96
2022/10/25 13:19:31;;;;;;;0.70;0.70;;;22.90;41.60;;;;;;20780;6837;119147;-96
2022/10/25 13:22:03;;;;;;;2.83;0.90;;;22.70;42.90;;;;;;20915;6742;117486;-87
2022/10/25 13:24:42;;;;;;;0.60;0.60;;;22.30;43.70;;;;;;20867;6757;117626;-87
2022/10/25 13:27:29;;;;;;;1.40;0.73;;;21.90;44.30;;;;;;20405;6772;309349;-85
2022/10/25 13:30:16;;;;;;;0.73;0.60;;;22.00;43.80;;;;;;20833;6813;117627;-86